Time;durP1;ratioP1;P1;durP2;ratioP2;P2;SDS_P1;SDS_P2;PMS_P1;PMS_P2;Temp;Humidity;BMP_temperature;BMP_pressure;BME280_temperature;BME280_humidity;BME280_pressure;Samples;Min_cycle;Max_cycle;Signal;HPM_P1;HPM_P2
2021/04/17 00:01:41;;;;;;;9.73;7.20;;;4.40;2.60;;;;;;5026553;28;20053;-72
2021/04/17 00:04:09;;;;;;;10.07;6.90;;;4.50;2.80;;;;;;5030199;28;20072;-71
2021/04/17 00:06:36;;;;;;;9.20;6.95;;;4.50;2.40;;;;;;5029437;28;20526;-72
2021/04/17 00:09:07;;;;;;;10.77;7.70;;;4.50;2.50;;;;;;5028019;28;20721;-72
2021/04/17 00:11:36;;;;;;;10.90;7.95;;;4.50;3.20;;;;;;5027599;28;20069;-72
2021/04/17 00:14:06;;;;;;;11.10;8.15;;;4.50;3.40;;;;;;5031345;28;20517;-71
2021/04/17 00:16:33;;;;;;;9.95;7.60;;;4.50;3.60;;;;;;5029033;28;20140;-71
2021/04/17 00:19:00;;;;;;;11.63;8.02;;;4.40;4.00;;;;;;5028480;28;20057;-71
2021/04/17 00:21:27;;;;;;;9.85;7.35;;;4.40;4.00;;;;;;5027085;28;20535;-72
2021/04/17 00:23:54;;;;;;;10.40;7.95;;;4.40;4.00;;;;;;5028092;28;20041;-72
2021/04/17 00:26:21;;;;;;;10.88;7.70;;;4.40;4.20;;;;;;5028332;28;20049;-71
2021/04/17 00:28:49;;;;;;;11.45;8.23;;;4.40;4.30;;;;;;5028013;28;20560;-70
2021/04/17 00:31:16;;;;;;;10.90;7.88;;;4.30;4.50;;;;;;5026867;28;20041;-71
2021/04/17 00:33:43;;;;;;;12.52;9.50;;;4.30;4.90;;;;;;5028373;28;20451;-71
2021/04/17 00:36:10;;;;;;;11.82;7.95;;;4.30;5.20;;;;;;5029754;28;20075;-71
2021/04/17 00:38:37;;;;;;;11.52;8.60;;;4.40;4.90;;;;;;5026500;28;20049;-70
2021/04/17 00:41:04;;;;;;;12.88;8.55;;;4.30;5.30;;;;;;5027544;28;20045;-71
2021/04/17 00:43:31;;;;;;;10.02;8.32;;;4.30;5.80;;;;;;5029024;28;20075;-71
2021/04/17 00:45:59;;;;;;;10.73;8.05;;;4.30;5.90;;;;;;5028532;28;20053;-71
2021/04/17 00:48:26;;;;;;;10.50;8.48;;;4.30;5.90;;;;;;5023428;28;20488;-71
2021/04/17 00:50:54;;;;;;;11.15;8.05;;;4.30;6.30;;;;;;5028749;28;20135;-70
2021/04/17 00:53:21;;;;;;;13.57;8.30;;;4.20;7.00;;;;;;5029422;28;20068;-71
2021/04/17 00:55:48;;;;;;;12.25;9.30;;;4.20;7.20;;;;;;5032154;28;20056;-72
2021/04/17 00:58:15;;;;;;;10.48;7.97;;;4.20;7.70;;;;;;5026709;28;20045;-74
2021/04/17 01:00:42;;;;;;;11.73;8.40;;;4.20;7.70;;;;;;5030126;28;20076;-71
2021/04/17 01:03:17;;;;;;;11.73;8.90;;;4.20;8.20;;;;;;5027951;28;20063;-72
2021/04/17 01:05:46;;;;;;;12.45;8.48;;;4.20;8.00;;;;;;5026964;28;20061;-71
2021/04/17 01:08:22;;;;;;;12.52;9.27;;;4.20;8.50;;;;;;5025527;28;20065;-71
2021/04/17 01:10:54;;;;;;;10.90;8.85;;;4.20;8.20;;;;;;5027292;28;20128;-72
2021/04/17 01:13:22;;;;;;;14.10;9.23;;;4.20;8.40;;;;;;5025069;28;20521;-72
2021/04/17 01:15:50;;;;;;;11.80;9.48;;;4.30;8.40;;;;;;5028082;28;20423;-72
2021/04/17 01:18:22;;;;;;;12.75;9.23;;;4.20;8.40;;;;;;5026584;28;20045;-72
2021/04/17 01:20:52;;;;;;;12.07;9.10;;;4.20;8.50;;;;;;5026219;28;20422;-72
2021/04/17 01:23:28;;;;;;;11.38;8.75;;;4.20;8.50;;;;;;5019710;28;20045;-72
2021/04/17 01:26:02;;;;;;;13.07;9.10;;;4.10;8.40;;;;;;5025827;28;20053;-71
2021/04/17 01:28:35;;;;;;;13.75;9.48;;;4.20;8.80;;;;;;5025436;28;20057;-71
2021/04/17 01:31:05;;;;;;;12.02;8.93;;;4.20;8.90;;;;;;5025873;28;20088;-72
2021/04/17 01:33:36;;;;;;;12.98;9.55;;;4.10;9.50;;;;;;5025847;28;20060;-73
2021/04/17 01:36:05;;;;;;;12.55;9.32;;;4.10;9.60;;;;;;5028780;28;20056;-72
2021/04/17 01:38:36;;;;;;;12.00;9.63;;;4.10;9.80;;;;;;5023850;28;20116;-72
2021/04/17 01:41:10;;;;;;;15.98;9.63;;;4.10;10.20;;;;;;5027821;28;20056;-71
2021/04/17 01:43:38;;;;;;;15.45;9.73;;;4.10;10.10;;;;;;5025566;28;20451;-72
2021/04/17 01:46:08;;;;;;;12.90;10.00;;;4.10;10.30;;;;;;5028391;28;20049;-72
2021/04/17 01:48:38;;;;;;;14.07;9.80;;;4.00;10.40;;;;;;5023916;28;20085;-73
2021/04/17 01:51:08;;;;;;;14.48;9.90;;;4.10;10.60;;;;;;5025238;28;20065;-72
2021/04/17 01:53:40;;;;;;;13.63;10.40;;;4.00;10.60;;;;;;5027549;28;20125;-72
2021/04/17 01:56:13;;;;;;;13.38;9.80;;;4.10;10.90;;;;;;5026341;28;20401;-73
2021/04/17 01:58:42;;;;;;;12.68;10.77;;;4.10;11.00;;;;;;5025256;28;20076;-72
2021/04/17 02:01:10;;;;;;;14.43;10.40;;;4.10;10.70;;;;;;5026070;28;20072;-72
2021/04/17 02:03:37;;;;;;;13.82;10.50;;;4.00;11.10;;;;;;5027617;28;20126;-72
2021/04/17 02:06:04;;;;;;;13.27;10.43;;;4.10;11.20;;;;;;5026339;28;20053;-72
2021/04/17 02:08:35;;;;;;;14.65;10.52;;;4.00;11.10;;;;;;5023991;28;21636;-72
2021/04/17 02:11:04;;;;;;;16.50;11.43;;;4.10;10.90;;;;;;5026755;28;20045;-72
2021/04/17 02:13:34;;;;;;;14.27;10.38;;;4.10;10.70;;;;;;5024954;28;20419;-71
2021/04/17 02:16:07;;;;;;;14.20;10.73;;;4.10;11.10;;;;;;5027034;28;20045;-72
2021/04/17 02:18:46;;;;;;;13.65;11.25;;;4.10;11.10;;;;;;5022781;28;20064;-71
2021/04/17 02:21:18;;;;;;;13.27;10.15;;;4.10;11.40;;;;;;5026426;28;20057;-75
2021/04/17 02:23:46;;;;;;;13.32;10.27;;;4.10;11.10;;;;;;5027122;28;20053;-73
2021/04/17 02:26:14;;;;;;;16.58;11.02;;;4.10;11.70;;;;;;5027193;28;20057;-72
2021/04/17 02:28:42;;;;;;;15.75;10.27;;;4.10;11.10;;;;;;5022692;28;20073;-71
2021/04/17 02:31:08;;;;;;;15.43;10.95;;;4.10;11.30;;;;;;5026148;28;20057;-72
2021/04/17 02:33:36;;;;;;;13.85;10.70;;;4.10;11.40;;;;;;5027614;28;20076;-72
2021/04/17 02:36:04;;;;;;;15.05;11.02;;;4.10;11.30;;;;;;5026328;28;20053;-72
2021/04/17 02:38:31;;;;;;;19.02;11.30;;;4.10;11.40;;;;;;5023825;28;20053;-73
2021/04/17 02:40:58;;;;;;;15.55;11.23;;;4.10;11.30;;;;;;5026007;28;20081;-73
2021/04/17 02:43:25;;;;;;;16.92;11.25;;;4.10;11.30;;;;;;5026756;28;20419;-74
2021/04/17 02:45:53;;;;;;;17.45;11.60;;;4.10;10.90;;;;;;5028065;28;20060;-74
2021/04/17 02:48:20;;;;;;;15.02;11.32;;;4.00;11.50;;;;;;5024456;28;20045;-71
2021/04/17 02:50:47;;;;;;;14.50;10.43;;;4.10;11.50;;;;;;5026177;28;20083;-71
2021/04/17 02:53:14;;;;;;;16.63;11.45;;;4.20;11.20;;;;;;5026217;28;20139;-73
2021/04/17 02:55:41;;;;;;;15.98;11.57;;;4.10;10.90;;;;;;5028198;28;20056;-71
2021/04/17 02:58:08;;;;;;;15.52;11.18;;;4.10;10.80;;;;;;5026369;28;20041;-72
2021/04/17 03:00:34;;;;;;;15.82;11.00;;;4.10;10.70;;;;;;5022446;28;20045;-71
2021/04/17 03:03:02;;;;;;;15.75;11.45;;;4.10;11.10;;;;;;5027441;28;20045;-71
2021/04/17 03:05:29;;;;;;;15.18;10.30;;;4.00;11.50;;;;;;5026657;28;20092;-71
2021/04/17 03:07:56;;;;;;;17.05;12.02;;;4.00;11.90;;;;;;5026509;28;20049;-72
2021/04/17 03:10:23;;;;;;;16.25;11.18;;;4.00;11.90;;;;;;5025631;28;20060;-73
2021/04/17 03:12:50;;;;;;;15.88;11.40;;;4.00;11.90;;;;;;5026944;28;20052;-71
2021/04/17 03:15:17;;;;;;;16.98;11.25;;;4.00;11.50;;;;;;5026242;28;20053;-69
2021/04/17 03:17:44;;;;;;;16.27;11.30;;;4.00;11.80;;;;;;5025918;28;20049;-72
2021/04/17 03:20:13;;;;;;;15.90;10.98;;;4.00;11.90;;;;;;5025198;28;20399;-72
2021/04/17 03:22:40;;;;;;;16.02;11.50;;;4.00;11.90;;;;;;5026019;28;20792;-71
2021/04/17 03:25:10;;;;;;;15.98;11.68;;;4.00;11.90;;;;;;5026434;28;20419;-72
2021/04/17 03:27:38;;;;;;;19.63;11.93;;;4.00;11.90;;;;;;5024451;28;20141;-71
2021/04/17 03:30:07;;;;;;;15.85;11.50;;;3.90;12.30;;;;;;5021910;28;20053;-73
2021/04/17 03:32:34;;;;;;;15.55;11.00;;;3.90;12.10;;;;;;5025324;28;20041;-72
2021/04/17 03:35:01;;;;;;;17.52;12.15;;;4.00;11.90;;;;;;5026968;28;20518;-72
2021/04/17 03:37:29;;;;;;;18.00;11.85;;;4.00;11.90;;;;;;5025107;28;21839;-72
2021/04/17 03:39:56;;;;;;;19.85;12.10;;;4.00;11.90;;;;;;5025917;28;20049;-71
2021/04/17 03:42:23;;;;;;;16.83;12.38;;;4.00;11.70;;;;;;5024926;28;20053;-70
2021/04/17 03:44:50;;;;;;;18.85;12.52;;;4.00;11.80;;;;;;5027333;28;20046;-72
2021/04/17 03:47:17;;;;;;;20.48;12.05;;;3.90;11.60;;;;;;5024233;28;20049;-72
2021/04/17 03:49:44;;;;;;;15.90;11.45;;;4.00;11.50;;;;;;5024111;28;20060;-73
2021/04/17 03:52:12;;;;;;;21.08;12.45;;;4.00;11.00;;;;;;5024990;28;20499;-72
2021/04/17 03:54:41;;;;;;;18.13;12.73;;;4.00;11.00;;;;;;5027044;28;20045;-72
2021/04/17 03:57:08;;;;;;;16.85;12.48;;;3.90;11.30;;;;;;5026438;28;20052;-75
2021/04/17 03:59:35;;;;;;;17.85;11.70;;;3.90;11.70;;;;;;5024311;28;20057;-73
2021/04/17 04:02:01;;;;;;;21.73;12.40;;;3.80;11.90;;;;;;5024168;28;20050;-73
2021/04/17 04:04:28;;;;;;;18.17;13.13;;;3.80;12.40;;;;;;5025670;28;20050;-71
2021/04/17 04:06:55;;;;;;;19.88;12.43;;;3.70;12.50;;;;;;5026669;28;20047;-72
2021/04/17 04:09:22;;;;;;;17.67;12.85;;;3.70;12.80;;;;;;5020645;28;20065;-72
2021/04/17 04:11:50;;;;;;;18.55;12.98;;;3.70;12.70;;;;;;5026107;28;20049;-71
2021/04/17 04:14:17;;;;;;;19.10;12.93;;;3.60;13.30;;;;;;5031090;28;20037;-71
2021/04/17 04:16:44;;;;;;;16.90;12.05;;;3.60;13.60;;;;;;5029892;28;20503;-71
2021/04/17 04:19:11;;;;;;;21.23;13.80;;;3.60;13.50;;;;;;5025855;28;20085;-71
2021/04/17 04:21:41;;;;;;;20.85;14.02;;;3.60;13.60;;;;;;5026566;28;20097;-73
2021/04/17 04:24:08;;;;;;;20.40;13.10;;;3.60;14.00;;;;;;5029118;28;20045;-71
2021/04/17 04:26:36;;;;;;;18.58;12.77;;;3.60;13.80;;;;;;5030669;28;20047;-72
2021/04/17 04:29:04;;;;;;;20.33;13.05;;;3.60;13.70;;;;;;5026965;28;20072;-71
2021/04/17 04:31:34;;;;;;;18.75;12.73;;;3.70;13.30;;;;;;5026587;28;20049;-71
2021/04/17 04:34:01;;;;;;;22.73;13.68;;;3.60;13.10;;;;;;5028367;28;20046;-72
2021/04/17 04:36:28;;;;;;;22.25;13.38;;;3.60;13.60;;;;;;5029819;28;20525;-72
2021/04/17 04:38:55;;;;;;;22.42;13.20;;;3.60;14.20;;;;;;5026316;28;20051;-71
2021/04/17 04:41:22;;;;;;;23.42;14.45;;;3.60;14.10;;;;;;5022007;28;20046;-72
2021/04/17 04:43:49;;;;;;;18.38;12.43;;;3.50;14.60;;;;;;5027182;28;20045;-72
2021/04/17 04:46:17;;;;;;;21.88;13.13;;;3.50;15.00;;;;;;5028646;28;21323;-71
2021/04/17 04:48:44;;;;;;;20.38;13.48;;;3.60;15.00;;;;;;5024853;28;20054;-71
2021/04/17 04:51:12;;;;;;;20.08;13.10;;;3.60;15.20;;;;;;5028320;28;20046;-72
2021/04/17 04:53:39;;;;;;;21.80;14.07;;;3.60;15.20;;;;;;5028572;28;20060;-72
2021/04/17 04:56:06;;;;;;;22.10;14.30;;;3.60;15.20;;;;;;5029869;28;20452;-71
2021/04/17 04:58:33;;;;;;;21.30;13.90;;;3.60;15.20;;;;;;5023746;28;20064;-72
2021/04/17 05:01:01;;;;;;;23.10;14.55;;;3.60;15.40;;;;;;5028332;28;20057;-73
2021/04/17 05:03:29;;;;;;;22.63;14.75;;;3.60;16.00;;;;;;5029287;28;20123;-71
2021/04/17 05:05:55;;;;;;;22.70;15.13;;;3.60;15.20;;;;;;5028266;28;20483;-73
2021/04/17 05:08:22;;;;;;;22.33;14.80;;;3.70;15.30;;;;;;5027044;28;20041;-72
2021/04/17 05:10:49;;;;;;;23.92;14.23;;;3.70;14.50;;;;;;5027598;28;20049;-73
2021/04/17 05:13:16;;;;;;;21.70;13.27;;;3.90;14.60;;;;;;5028508;28;20384;-71
2021/04/17 05:15:43;;;;;;;21.92;13.98;;;3.80;14.20;;;;;;5027106;28;20061;-72
2021/04/17 05:18:09;;;;;;;21.00;14.82;;;3.80;14.30;;;;;;5027507;28;20075;-71
2021/04/17 05:20:37;;;;;;;20.42;13.48;;;3.90;13.90;;;;;;5029400;28;20045;-71
2021/04/17 05:23:04;;;;;;;23.48;13.80;;;3.90;13.40;;;;;;5025524;28;20504;-71
2021/04/17 05:25:31;;;;;;;22.15;14.05;;;4.00;13.10;;;;;;5027917;28;20041;-72
2021/04/17 05:27:58;;;;;;;25.38;14.82;;;4.00;12.90;;;;;;5026859;28;20069;-72
2021/04/17 05:30:25;;;;;;;23.52;13.48;;;4.00;12.80;;;;;;5028195;28;20447;-71
2021/04/17 05:32:52;;;;;;;24.05;14.98;;;4.00;12.90;;;;;;5024918;28;20140;-72
2021/04/17 05:35:19;;;;;;;22.30;14.27;;;4.10;12.00;;;;;;5026072;28;20180;-71
2021/04/17 05:37:46;;;;;;;21.30;14.02;;;4.10;12.20;;;;;;5025038;28;20077;-72
2021/04/17 05:40:14;;;;;;;20.05;13.07;;;4.20;12.10;;;;;;5027350;28;20045;-72
2021/04/17 05:42:41;;;;;;;19.63;13.20;;;4.20;11.70;;;;;;5024940;28;20057;-71
2021/04/17 05:45:09;;;;;;;22.35;13.32;;;4.10;12.00;;;;;;5029074;28;20145;-71
2021/04/17 05:47:36;;;;;;;18.45;13.07;;;4.10;12.70;;;;;;5026116;28;20053;-72
2021/04/17 05:50:03;;;;;;;17.88;12.55;;;4.10;13.20;;;;;;5030554;28;20049;-72
2021/04/17 05:52:30;;;;;;;22.35;13.98;;;4.20;13.00;;;;;;5022739;28;20065;-72
2021/04/17 05:54:58;;;;;;;19.42;13.27;;;4.40;12.50;;;;;;5030279;28;20488;-71
2021/04/17 05:57:25;;;;;;;16.05;11.65;;;4.60;11.20;;;;;;5026474;28;20054;-73
2021/04/17 05:59:52;;;;;;;16.58;11.48;;;4.60;10.50;;;;;;5025969;28;20041;-72
2021/04/17 06:02:19;;;;;;;18.25;11.60;;;4.60;9.60;;;;;;5023977;28;20049;-72
2021/04/17 06:04:47;;;;;;;16.58;11.93;;;4.70;8.80;;;;;;5028082;28;20057;-71
2021/04/17 06:07:13;;;;;;;20.15;12.85;;;4.70;8.80;;;;;;5026808;28;20054;-73
2021/04/17 06:09:40;;;;;;;18.15;12.02;;;4.90;8.90;;;;;;5026334;28;20077;-72
2021/04/17 06:12:09;;;;;;;19.25;13.02;;;5.00;8.40;;;;;;5024975;28;20053;-70
2021/04/17 06:14:35;;;;;;;19.45;12.95;;;5.00;7.50;;;;;;5026950;28;20056;-72
2021/04/17 06:17:03;;;;;;;19.05;12.80;;;5.20;7.30;;;;;;5027080;28;20048;-71
2021/04/17 06:19:30;;;;;;;19.38;12.70;;;5.40;4.90;;;;;;5028183;28;20140;-71
2021/04/17 06:21:57;;;;;;;18.83;12.48;;;5.50;4.20;;;;;;5021863;28;20049;-72
2021/04/17 06:24:24;;;;;;;20.42;11.85;;;5.20;4.80;;;;;;5027905;28;20042;-72
2021/04/17 06:26:51;;;;;;;21.83;14.48;;;5.10;6.30;;;;;;5025526;28;20377;-72
2021/04/17 06:29:18;;;;;;;17.80;13.43;;;5.10;7.60;;;;;;5026235;28;20495;-72
2021/04/17 06:31:45;;;;;;;19.17;14.23;;;5.10;7.70;;;;;;5021358;28;20053;-72
2021/04/17 06:34:12;;;;;;;19.13;12.77;;;5.10;7.80;;;;;;5025372;28;20541;-71
2021/04/17 06:36:39;;;;;;;17.75;12.77;;;5.10;7.60;;;;;;5025877;28;20057;-71
2021/04/17 06:39:07;;;;;;;19.58;13.30;;;4.90;7.20;;;;;;5024346;28;20045;-72
2021/04/17 06:41:36;;;;;;;19.52;12.20;;;5.10;7.20;;;;;;5023605;28;20057;-71
2021/04/17 06:44:05;;;;;;;18.75;11.88;;;5.20;6.40;;;;;;5027204;28;20446;-72
2021/04/17 06:46:34;;;;;;;17.55;12.70;;;5.30;6.00;;;;;;5025743;28;20049;-72
2021/04/17 06:49:03;;;;;;;18.42;13.07;;;5.40;5.50;;;;;;5024944;28;20049;-72
2021/04/17 06:51:30;;;;;;;19.13;12.40;;;5.30;6.70;;;;;;5023772;28;20049;-73
2021/04/17 06:53:58;;;;;;;20.77;14.10;;;5.20;5.10;;;;;;5026214;28;20041;-72
2021/04/17 06:56:25;;;;;;;17.45;12.32;;;5.40;5.30;;;;;;5026419;28;20041;-72
2021/04/17 06:58:54;;;;;;;16.80;11.50;;;5.60;3.20;;;;;;5024730;28;20045;-72
2021/04/17 07:01:22;;;;;;;18.80;11.98;;;5.70;1.30;;;;;;5025430;28;20255;-72
2021/04/17 07:03:50;;;;;;;16.85;11.95;;;5.80;1.40;;;;;;5025398;28;20045;-71
2021/04/17 07:06:17;;;;;;;16.20;11.35;;;5.80;1.00;;;;;;5027550;28;21332;-72
2021/04/17 07:08:43;;;;;;;18.17;11.80;;;5.90;1.00;;;;;;5023452;28;20055;-72
2021/04/17 07:11:10;;;;;;;15.15;11.18;;;6.30;1.00;;;;;;5024816;28;20053;-73
2021/04/17 07:13:37;;;;;;;15.15;11.38;;;6.50;1.00;;;;;;5025697;28;20064;-73
2021/04/17 07:16:09;;;;;;;17.90;11.82;;;6.90;1.00;;;;;;5026760;28;20057;-72
2021/04/17 07:18:36;;;;;;;16.98;10.50;;;6.40;1.00;;;;;;5025958;28;20073;-73
2021/04/17 07:21:27;;;;;;;15.45;11.13;;;6.50;1.00;;;;;;5020907;28;20448;-73
2021/04/17 07:23:55;;;;;;;14.65;10.65;;;7.00;1.00;;;;;;5025980;28;20045;-71
2021/04/17 07:26:25;;;;;;;15.00;10.55;;;7.30;1.00;;;;;;5023972;28;20143;-72
2021/04/17 07:29:01;;;;;;;16.25;10.65;;;8.00;1.00;;;;;;5025553;28;20106;-72
2021/04/17 07:31:30;;;;;;;11.95;9.77;;;7.80;1.00;;;;;;5019551;28;20041;-72
2021/04/17 07:34:11;;;;;;;12.23;8.88;;;7.90;1.00;;;;;;5025646;28;20046;-72
2021/04/17 07:36:55;;;;;;;11.70;9.15;;;8.00;1.00;;;;;;5027291;28;20396;-73
2021/04/17 07:39:34;;;;;;;11.57;8.70;;;8.20;1.00;;;;;;5022907;28;20052;-72
2021/04/17 07:42:04;;;;;;;15.15;9.68;;;7.60;1.00;;;;;;5024104;28;20061;-73
2021/04/17 07:44:33;;;;;;;13.77;9.50;;;7.80;1.00;;;;;;5025946;28;20060;-73
2021/04/17 07:47:00;;;;;;;14.48;9.35;;;8.00;1.00;;;;;;5028402;28;20079;-73
2021/04/17 07:49:27;;;;;;;11.63;8.45;;;8.50;1.00;;;;;;5029551;28;20042;-72
2021/04/17 07:52:01;;;;;;;12.70;8.40;;;8.70;1.00;;;;;;5025121;28;20136;-72
2021/04/17 07:54:28;;;;;;;13.82;7.72;;;7.80;1.00;;;;;;5030157;28;20041;-72
2021/04/17 07:56:55;;;;;;;14.40;9.02;;;7.90;1.00;;;;;;5029533;28;20052;-71
2021/04/17 07:59:25;;;;;;;15.25;9.27;;;8.00;1.00;;;;;;5029279;28;20422;-73
2021/04/17 08:01:52;;;;;;;14.82;9.55;;;8.30;1.00;;;;;;5025102;28;20042;-72
2021/04/17 08:04:24;;;;;;;12.48;9.07;;;8.40;1.00;;;;;;5031802;28;20037;-73
2021/04/17 08:06:52;;;;;;;12.88;8.85;;;8.50;1.00;;;;;;5028830;28;20057;-73
2021/04/17 08:09:23;;;;;;;14.52;9.82;;;8.30;1.00;;;;;;5027456;28;20426;-72
2021/04/17 08:11:51;;;;;;;13.45;9.30;;;8.40;1.00;;;;;;5025829;28;20057;-72
2021/04/17 08:14:21;;;;;;;13.63;10.23;;;8.20;1.00;;;;;;5030589;28;20057;-72
2021/04/17 08:16:48;;;;;;;13.00;9.50;;;7.90;1.00;;;;;;5028847;28;20053;-73
2021/04/17 08:19:16;;;;;;;11.60;8.88;;;7.80;1.00;;;;;;5028625;28;20059;-71
2021/04/17 08:21:43;;;;;;;13.63;9.23;;;7.80;1.00;;;;;;5026059;28;20061;-72
2021/04/17 08:24:11;;;;;;;13.50;9.23;;;7.90;1.00;;;;;;5030177;28;20048;-73
2021/04/17 08:26:40;;;;;;;12.27;8.27;;;7.80;1.00;;;;;;5026798;28;20053;-72
2021/04/17 08:29:07;;;;;;;15.55;8.07;;;8.10;1.00;;;;;;5028156;28;20072;-72
2021/04/17 08:31:36;;;;;;;12.15;8.65;;;8.00;1.00;;;;;;5025430;28;20556;-73
2021/04/17 08:34:15;;;;;;;12.27;8.15;;;8.20;1.00;;;;;;5029870;28;20049;-73
2021/04/17 08:36:48;;;;;;;11.95;8.32;;;8.70;1.00;;;;;;5029776;28;20059;-72
2021/04/17 08:39:42;;;;;;;10.07;7.93;;;8.50;1.00;;;;;;5026694;28;20049;-72
2021/04/17 08:42:12;;;;;;;;;;;8.90;1.00;;;;;;5027558;28;20076;-72
2021/04/17 08:44:41;;;;;;;9.48;6.80;;;9.00;1.00;;;;;;5031989;28;20379;-72
2021/04/17 08:47:12;;;;;;;12.05;7.75;;;9.00;1.00;;;;;;5030696;28;20064;-73
2021/04/17 08:49:41;;;;;;;10.63;7.43;;;9.40;1.00;;;;;;5031173;28;20810;-71
2021/04/17 08:52:21;;;;;;;10.80;7.13;;;9.40;1.00;;;;;;5027819;28;20407;-71
2021/04/17 08:55:10;;;;;;;9.10;7.35;;;9.40;1.00;;;;;;5030638;28;20535;-72
2021/04/17 08:57:38;;;;;;;13.02;7.63;;;9.20;1.00;;;;;;5029403;28;20420;-72
2021/04/17 09:00:07;;;;;;;9.63;6.75;;;9.20;1.00;;;;;;5031284;28;20414;-73
2021/04/17 09:02:45;;;;;;;8.90;6.82;;;9.30;1.00;;;;;;5028056;28;20060;-72
2021/04/17 09:05:14;;;;;;;11.48;7.13;;;9.30;1.00;;;;;;5031352;28;20052;-73
2021/04/17 09:07:44;;;;;;;9.07;6.85;;;9.20;1.00;;;;;;5028848;28;20049;-73
2021/04/17 09:10:34;;;;;;;9.10;6.97;;;9.70;1.00;;;;;;5032059;28;20061;-73
2021/04/17 09:13:34;;;;;;;13.77;7.05;;;10.10;1.00;;;;;;5027976;28;20135;-73
2021/04/17 09:16:03;;;;;;;10.13;7.22;;;9.40;1.00;;;;;;5031728;28;20380;-73
2021/04/17 09:18:44;;;;;;;10.75;7.10;;;9.00;1.00;;;;;;5027843;28;20136;-73
2021/04/17 09:21:32;;;;;;;11.40;7.72;;;9.10;1.00;;;;;;5027284;28;20507;-73
2021/04/17 09:24:00;;;;;;;10.18;6.20;;;9.30;1.00;;;;;;5030752;28;20099;-73
2021/04/17 09:26:35;;;;;;;11.32;7.93;;;9.60;1.00;;;;;;5030706;28;20045;-72
2021/04/17 09:29:05;;;;;;;9.63;7.00;;;10.10;1.00;;;;;;5029382;28;20050;-73
2021/04/17 09:31:36;;;;;;;9.18;6.85;;;8.90;1.00;;;;;;5028315;28;20053;-73
2021/04/17 09:34:06;;;;;;;11.95;7.28;;;9.20;1.00;;;;;;5030469;28;20119;-72
2021/04/17 09:36:34;;;;;;;8.80;5.80;;;10.00;1.00;;;;;;5025014;28;20081;-73
2021/04/17 09:39:22;;;;;;;6.90;5.40;;;10.20;1.00;;;;;;5029672;28;20638;-73
2021/04/17 09:41:50;;;;;;;10.65;6.05;;;9.70;1.00;;;;;;5026519;28;20068;-72
2021/04/17 09:44:19;;;;;;;8.10;5.03;;;9.70;1.00;;;;;;5031483;28;20073;-72
2021/04/17 09:46:47;;;;;;;7.72;5.18;;;9.60;1.00;;;;;;5029839;28;20136;-73
2021/04/17 09:49:32;;;;;;;8.05;5.13;;;9.70;1.00;;;;;;5028825;28;20142;-72
2021/04/17 09:52:00;;;;;;;7.25;5.07;;;10.30;1.00;;;;;;5025215;28;20493;-73
2021/04/17 09:54:27;;;;;;;10.88;5.35;;;9.90;1.00;;;;;;5027890;28;20056;-73
2021/04/17 09:56:55;;;;;;;9.05;5.53;;;10.00;1.00;;;;;;5029364;28;20072;-72
2021/04/17 09:59:23;;;;;;;7.45;4.75;;;10.20;1.00;;;;;;5027154;28;20049;-72
2021/04/17 10:01:54;;;;;;;10.00;5.50;;;10.30;1.00;;;;;;5025975;28;20056;-73
2021/04/17 10:04:22;;;;;;;11.48;5.10;;;9.70;1.00;;;;;;5030601;28;21387;-71
2021/04/17 10:06:55;;;;;;;7.55;4.88;;;9.80;1.00;;;;;;5029715;28;20052;-73
2021/04/17 10:09:22;;;;;;;6.68;4.93;;;10.00;1.00;;;;;;5027758;28;20053;-73
2021/04/17 10:11:50;;;;;;;7.03;4.60;;;9.60;1.00;;;;;;5026884;28;20050;-73
2021/04/17 10:14:18;;;;;;;8.60;4.10;;;10.30;1.00;;;;;;5030687;28;20041;-73
2021/04/17 10:16:47;;;;;;;8.52;4.40;;;10.30;1.00;;;;;;5028539;28;20164;-73
2021/04/17 10:19:16;;;;;;;5.88;4.03;;;10.20;1.00;;;;;;5023881;28;20060;-73
2021/04/17 10:21:45;;;;;;;6.57;4.38;;;10.30;1.00;;;;;;5024136;28;20057;-71
2021/04/17 10:24:21;;;;;;;6.45;4.78;;;10.30;1.00;;;;;;5026855;28;20048;-73
2021/04/17 10:26:54;;;;;;;6.97;5.07;;;10.10;1.00;;;;;;5025751;28;20076;-72
2021/04/17 10:29:31;;;;;;;5.97;3.88;;;10.50;1.00;;;;;;5024692;28;20507;-73
2021/04/17 10:32:00;;;;;;;7.10;3.95;;;10.90;1.00;;;;;;5021447;28;20053;-73
2021/04/17 10:34:28;;;;;;;7.60;4.07;;;10.30;1.00;;;;;;5026605;28;20049;-73
2021/04/17 10:36:56;;;;;;;6.38;4.03;;;10.80;1.00;;;;;;5027538;28;20054;-72
2021/04/17 10:39:23;;;;;;;7.45;3.58;;;10.70;1.00;;;;;;5025415;28;20056;-73
2021/04/17 10:42:01;;;;;;;6.10;3.53;;;10.40;1.00;;;;;;5022138;28;20061;-72
2021/04/17 10:44:29;;;;;;;5.47;3.50;;;10.50;1.00;;;;;;5028198;28;20495;-72
2021/04/17 10:46:59;;;;;;;7.50;3.85;;;10.90;1.00;;;;;;5026002;28;20053;-72
2021/04/17 10:49:30;;;;;;;5.10;3.67;;;11.00;1.00;;;;;;5026104;28;20041;-72
2021/04/17 10:51:58;;;;;;;4.95;3.70;;;10.40;1.00;;;;;;5021392;28;20042;-72
2021/04/17 10:54:25;;;;;;;6.00;4.10;;;11.00;1.00;;;;;;5025948;28;20415;-71
2021/04/17 10:57:02;;;;;;;5.93;4.28;;;11.40;1.00;;;;;;5027735;28;20057;-71
2021/04/17 10:59:53;;;;;;;8.70;4.32;;;11.10;1.00;;;;;;5026848;28;20633;-71
2021/04/17 11:02:28;;;;;;;5.82;3.75;;;11.10;1.00;;;;;;5021091;28;20057;-72
2021/04/17 11:04:57;;;;;;;5.57;3.35;;;10.90;1.00;;;;;;5026886;28;20045;-71
2021/04/17 11:07:32;;;;;;;4.28;3.30;;;10.60;1.00;;;;;;5023922;28;20071;-72
2021/04/17 11:10:00;;;;;;;6.15;3.50;;;10.80;1.00;;;;;;5027255;28;20042;-72
2021/04/17 11:12:30;;;;;;;3.30;2.80;;;11.10;1.00;;;;;;5022941;28;20069;-72
2021/04/17 11:15:17;;;;;;;6.95;3.80;;;11.20;1.00;;;;;;5025242;28;20042;-73
2021/04/17 11:18:04;;;;;;;6.07;3.58;;;10.90;1.00;;;;;;5024302;28;20045;-72
2021/04/17 11:20:47;;;;;;;6.30;3.28;;;11.30;1.00;;;;;;5025287;28;20415;-72
2021/04/17 11:23:45;;;;;;;4.88;3.20;;;11.20;1.00;;;;;;5022217;28;20045;-72
2021/04/17 11:26:16;;;;;;;7.85;3.20;;;11.30;1.00;;;;;;5004900;28;20431;-72
2021/04/17 11:28:46;;;;;;;6.65;3.17;;;11.50;1.00;;;;;;5020690;28;20049;-72
2021/04/17 11:31:17;;;;;;;4.20;2.85;;;11.60;1.00;;;;;;5021619;28;20050;-71
2021/04/17 11:33:46;;;;;;;6.85;2.85;;;11.30;1.00;;;;;;5026871;28;20439;-72
2021/04/17 11:36:19;;;;;;;4.03;2.58;;;11.30;1.00;;;;;;5024565;28;20100;-72
2021/04/17 11:38:46;;;;;;;5.45;3.17;;;11.50;1.00;;;;;;5025130;28;20056;-73
2021/04/17 11:41:13;;;;;;;4.53;3.13;;;11.40;1.00;;;;;;5023494;28;20049;-72
2021/04/17 11:43:40;;;;;;;5.85;2.67;;;11.80;1.00;;;;;;5023094;28;20049;-72
2021/04/17 11:46:09;;;;;;;5.18;2.55;;;11.40;1.00;;;;;;5024750;28;20483;-72
2021/04/17 11:48:39;;;;;;;3.13;2.15;;;11.50;1.00;;;;;;5025430;28;20423;-72
2021/04/17 11:51:07;;;;;;;8.30;2.67;;;11.60;1.00;;;;;;5023190;28;20049;-73
2021/04/17 11:53:35;;;;;;;6.35;2.70;;;11.50;1.00;;;;;;5024434;28;20670;-71
2021/04/17 11:56:03;;;;;;;5.13;2.20;;;11.50;1.00;;;;;;5025489;28;20494;-72
2021/04/17 11:58:31;;;;;;;5.85;2.50;;;11.40;1.00;;;;;;5024045;28;20061;-72
2021/04/17 12:00:58;;;;;;;4.40;2.78;;;11.60;1.00;;;;;;5022559;28;20060;-72
2021/04/17 12:03:25;;;;;;;8.60;2.92;;;11.50;1.00;;;;;;5026141;28;20065;-73
2021/04/17 12:05:53;;;;;;;4.30;2.90;;;11.60;1.00;;;;;;5023636;28;20124;-73
2021/04/17 12:08:22;;;;;;;5.28;2.47;;;11.80;1.00;;;;;;5023824;28;20454;-73
2021/04/17 12:10:51;;;;;;;8.18;3.10;;;11.50;1.00;;;;;;5022771;28;20057;-73
2021/04/17 12:13:18;;;;;;;4.53;2.83;;;11.90;1.00;;;;;;5022045;28;20400;-72
2021/04/17 12:15:46;;;;;;;4.03;2.70;;;11.60;1.00;;;;;;5024072;28;20077;-67
2021/04/17 12:18:14;;;;;;;8.30;3.08;;;11.40;1.00;;;;;;5024185;28;20132;-67
2021/04/17 12:20:41;;;;;;;4.00;2.90;;;11.20;1.00;;;;;;5022426;28;20049;-71
2021/04/17 12:23:08;;;;;;;4.88;2.28;;;11.50;1.00;;;;;;5023778;28;20072;-66
2021/04/17 12:25:35;;;;;;;4.72;2.50;;;11.70;1.00;;;;;;5023959;28;20773;-68
2021/04/17 12:28:03;;;;;;;3.30;2.40;;;11.70;1.00;;;;;;5023699;28;20487;-74
2021/04/17 12:30:30;;;;;;;5.97;2.33;;;11.90;1.00;;;;;;5024144;28;20442;-74
2021/04/17 12:33:07;;;;;;;4.78;2.30;;;12.20;1.00;;;;;;5025370;28;20404;-73
2021/04/17 12:35:35;;;;;;;4.15;2.58;;;12.10;1.00;;;;;;5029802;28;20129;-72
2021/04/17 12:38:02;;;;;;;2.65;1.88;;;12.30;1.00;;;;;;5027175;28;20049;-74
2021/04/17 12:40:35;;;;;;;4.18;2.63;;;12.00;1.00;;;;;;5022259;28;20053;-73
2021/04/17 12:43:04;;;;;;;6.07;2.88;;;11.90;1.00;;;;;;5029468;28;20049;-73
2021/04/17 12:45:31;;;;;;;3.58;2.60;;;12.10;1.00;;;;;;5027714;28;20042;-73
2021/04/17 12:47:58;;;;;;;4.28;2.50;;;11.80;1.00;;;;;;5028877;28;20156;-75
2021/04/17 12:50:26;;;;;;;6.20;2.65;;;11.80;1.00;;;;;;5025321;28;20057;-75
2021/04/17 12:52:54;;;;;;;5.45;2.75;;;12.20;1.00;;;;;;5022756;28;20072;-76
2021/04/17 12:55:21;;;;;;;5.18;3.13;;;12.20;1.00;;;;;;5027067;28;20037;-74
2021/04/17 12:57:50;;;;;;;6.18;2.75;;;12.00;1.00;;;;;;5031411;28;20073;-75
2021/04/17 13:00:18;;;;;;;6.38;3.15;;;12.20;1.00;;;;;;5025490;28;20574;-74
2021/04/17 13:02:46;;;;;;;4.68;2.55;;;11.90;1.00;;;;;;5027911;28;20495;-75